Cherry Point, NC

11:32 PM EDT on March 22, 2017 (GMT -0400)
Cherry Point Marine Corps Air Station

Weather History for KNKT - September, 2013

Change the Weather History Date:

Sunday, September 22, 2013

  Actual Average Record
Temperature  
Mean Temperature 72 °F -  
Max Temperature 75 °F 78 °F 90 °F (1998)
Min Temperature 69 °F 62 °F 55 °F (1999)
Cooling Degree Days 7    
Growing Degree Days 22 (Base 50)    
Moisture  
Dew Point 68 °F    
Average Humidity 88    
Maximum Humidity 94    
Minimum Humidity 75    
Precipitation  
Precipitation 0.96 in - - ()
Sea Level Pressure  
Sea Level Pressure 29.73 in    
Wind  
Wind Speed 7 mph (ENE)    
Max Wind Speed 17 mph    
Max Gust Speed 26 mph    
Visibility 7 miles    
Events Rain    
Averages and records for this station are not official NWS values.
T = Trace of Precipitation, MM = Missing Value Source: NWS Daily Summary

Daily Weather History Graph

Daily Weather History Graph

Search for Another Location

Airport or City:

Trip Planner

Search our weather history database for the weather conditions in past years. The results will help you decide how hot, cold, wet, or windy it might be!

Date:

Astronomy

Sep. 22, 2013 Rise Set
Actual Time 6:55 AM EDT 7:03 PM EDT
Civil Twilight 6:30 AM EDT 7:29 PM EDT
Nautical Twilight 6:00 AM EDT 7:58 PM EDT
Astronomical Twilight 5:31 AM EDT 8:28 PM EDT
Moon 9:02 PM EDT (9/22) 10:04 AM EDT (9/22)
Length of Visible Light 12h 58m
Length of Day
12h 08m
Waning Gibbous, 89% of the Moon is Illuminated
Sep 22
Waning Gibbous
Sep 26
Last Quarter
Oct 4
New
Oct 11
First Quarter
Oct 18
Full

Hourly Weather History & Observations

Time (EDT) Temp. Dew Point Humidity Pressure Visibility Wind Dir Wind Speed Gust Speed Precip Events Conditions
12:54 AM 72.0 °F 69.1 °F 91% 29.75 in 10.0 mi South 3.5 mph - N/A   Scattered Clouds
1:54 AM 71.1 °F 69.1 °F 93% 29.75 in 7.0 mi Calm Calm - 0.00 in Rain Light Rain
2:22 AM 72.0 °F 69.1 °F 91% 29.75 in 3.0 mi Calm Calm - 0.04 in Rain Rain
2:54 AM 71.1 °F 68.0 °F 90% 29.74 in 6.0 mi SSW 3.5 mph - 0.09 in Rain Light Rain
3:54 AM 71.1 °F 68.0 °F 90% 29.72 in 6.0 mi Calm Calm - 0.04 in Rain Light Rain
4:54 AM 71.1 °F 68.0 °F 90% 29.71 in 10.0 mi East 6.9 mph - 0.04 in   Mostly Cloudy
5:46 AM 70.0 °F 68.0 °F 93% 29.71 in 1.8 mi East 9.2 mph - 0.08 in Rain Rain
5:48 AM 71.6 °F 68.0 °F 88% 29.71 in 2.0 mi East 9.2 mph - 0.08 in Rain Light Rain
5:54 AM 71.1 °F 68.0 °F 90% 29.70 in 9.0 mi East 8.1 mph - 0.08 in Rain Light Rain
6:06 AM 71.1 °F 69.1 °F 93% 29.71 in 3.0 mi Calm Calm - 0.04 in Rain Heavy Rain
6:12 AM 71.1 °F 69.1 °F 93% 29.72 in 1.8 mi Calm Calm - 0.10 in Rain Heavy Rain
6:20 AM 71.1 °F 69.1 °F 93% 29.72 in 2.0 mi East 5.8 mph - 0.17 in Rain Heavy Rain
6:28 AM 71.1 °F 69.1 °F 93% 29.71 in 3.0 mi East 9.2 mph - 0.19 in Rain Rain
6:42 AM 71.1 °F 69.1 °F 93% 29.72 in 5.0 mi West 5.8 mph - 0.22 in Rain Rain
6:52 AM 71.6 °F 69.8 °F 94% 29.72 in 5.0 mi Variable 5.8 mph - 0.24 in Rain Rain
6:54 AM 71.1 °F 69.1 °F 93% 29.71 in 5.0 mi ENE 6.9 mph - 0.25 in Rain Rain
7:03 AM 71.1 °F 69.1 °F 93% 29.71 in 4.0 mi East 10.4 mph - 0.02 in Rain Light Rain
7:16 AM 71.1 °F 68.0 °F 90% 29.72 in 2.0 mi SSW 11.5 mph 17.3 mph 0.12 in Rain Heavy Rain
7:23 AM 71.1 °F 68.0 °F 90% 29.72 in 3.0 mi South 9.2 mph 17.3 mph 0.14 in Rain Rain
7:34 AM 70.0 °F 66.9 °F 90% 29.72 in 1.8 mi South 8.1 mph - 0.24 in Rain Heavy Rain
7:54 AM 70.0 °F 66.9 °F 90% 29.70 in 4.0 mi SE 9.2 mph - 0.27 in Rain Light Rain
8:08 AM 69.1 °F 66.9 °F 93% 29.71 in 1.5 mi SE 9.2 mph - 0.07 in Rain Heavy Rain
8:20 AM 69.1 °F 66.9 °F 93% 29.71 in 2.0 mi SE 5.8 mph - 0.11 in Rain Light Rain
8:22 AM 69.1 °F 66.9 °F 93% 29.71 in 3.0 mi SSE 5.8 mph - 0.11 in Rain Light Rain
8:30 AM 69.1 °F 66.9 °F 93% 29.71 in 8.0 mi Variable 3.5 mph - 0.11 in   Overcast
8:40 AM 69.1 °F 66.9 °F 93% 29.71 in 1.5 mi ESE 8.1 mph - 0.15 in Rain Heavy Rain
8:54 AM 70.0 °F 68.0 °F 93% 29.70 in 3.0 mi SSE 3.5 mph - 0.19 in Rain Light Rain
9:01 AM 70.0 °F 68.0 °F 93% 29.71 in 9.0 mi East 3.5 mph - 0.00 in   Overcast
9:20 AM 71.1 °F 69.1 °F 93% 29.71 in 9.0 mi East 5.8 mph - 0.00 in   Overcast
9:54 AM 73.9 °F 71.1 °F 91% 29.71 in 10.0 mi Calm Calm - 0.00 in   Overcast
10:03 AM 73.9 °F 71.1 °F 91% 29.72 in 10.0 mi West 3.5 mph - N/A   Overcast
10:54 AM 73.9 °F 71.1 °F 91% 29.71 in 10.0 mi NE 9.2 mph - N/A   Mostly Cloudy
11:22 AM 75.0 °F 71.1 °F 87% 29.72 in 10.0 mi ENE 8.1 mph - N/A   Mostly Cloudy
11:54 AM 73.9 °F 70.0 °F 87% 29.71 in 10.0 mi NE 11.5 mph - N/A   Overcast
12:07 PM 73.9 °F 70.0 °F 87% 29.72 in 10.0 mi NE 12.7 mph - N/A   Overcast
12:25 PM 75.9 °F 70.0 °F 82% 29.72 in 10.0 mi NE 10.4 mph - N/A   Overcast
12:44 PM 75.0 °F 70.0 °F 84% 29.72 in 10.0 mi NE 12.7 mph - N/A   Overcast
12:54 PM 75.0 °F 69.1 °F 82% 29.71 in 10.0 mi NE 12.7 mph - N/A   Overcast
1:04 PM 75.0 °F 70.0 °F 84% 29.72 in 10.0 mi ENE 13.8 mph - N/A   Overcast
1:38 PM 75.0 °F 69.1 °F 82% 29.71 in 10.0 mi NE 13.8 mph - N/A   Overcast
1:50 PM 75.2 °F 69.8 °F 83% 29.71 in 10.0 mi NE 12.7 mph - N/A   Overcast
1:54 PM 75.9 °F 69.1 °F 79% 29.70 in 10.0 mi NNE 13.8 mph - N/A   Overcast
2:01 PM 75.0 °F 69.1 °F 82% 29.71 in 10.0 mi NE 12.7 mph - N/A   Overcast
2:54 PM 73.0 °F 68.0 °F 84% 29.70 in 10.0 mi NNE 17.3 mph - N/A   Overcast
3:54 PM 72.0 °F 66.9 °F 84% 29.70 in 10.0 mi North 16.1 mph - N/A   Overcast
4:27 PM 72.0 °F 66.9 °F 84% 29.72 in 10.0 mi NNE 17.3 mph - N/A   Overcast
4:54 PM 71.1 °F 66.0 °F 84% 29.71 in 10.0 mi North 17.3 mph 26.5 mph N/A   Overcast
5:54 PM 70.0 °F 66.0 °F 87% 29.74 in 2.5 mi North 16.1 mph - N/A   Overcast
6:19 PM 69.1 °F 66.0 °F 90% 29.75 in 5.0 mi North 15.0 mph - N/A   Overcast
6:54 PM 69.1 °F 66.0 °F 90% 29.75 in 6.0 mi North 13.8 mph - N/A   Overcast
7:03 PM 69.1 °F 64.9 °F 87% 29.76 in 9.0 mi North 16.1 mph - N/A   Overcast
7:54 PM 69.1 °F 64.0 °F 84% 29.77 in 10.0 mi North 16.1 mph 24.2 mph N/A   Overcast
8:01 PM 69.1 °F 64.0 °F 84% 29.78 in 10.0 mi North 16.1 mph - N/A   Overcast
8:51 PM 69.8 °F 62.6 °F 78% 29.80 in 10.0 mi North 15.0 mph - N/A   Overcast
8:54 PM 69.1 °F 62.1 °F 78% 29.80 in 10.0 mi North 13.8 mph - N/A   Overcast
9:54 PM 69.1 °F 61.0 °F 75% 29.81 in 10.0 mi North 11.5 mph - N/A   Overcast
10:54 PM 69.1 °F 62.1 °F 78% 29.83 in 10.0 mi North 11.5 mph - N/A   Overcast
11:54 PM 69.1 °F 62.1 °F 78% 29.85 in 10.0 mi North 15.0 mph - N/A   Overcast